createdAt,value
2023-04-10T00:01:15.349Z,14.80
2023-04-10T00:03:43.000Z,14.77
2023-04-10T00:06:10.756Z,14.50
2023-04-10T00:08:38.181Z,14.45
2023-04-10T00:11:06.093Z,15.05
2023-04-10T00:13:33.530Z,15.15
2023-04-10T00:16:01.340Z,16.80
2023-04-10T00:18:28.920Z,15.50
2023-04-10T00:20:56.512Z,15.95
2023-04-10T00:23:24.481Z,15.55
2023-04-10T00:25:51.905Z,14.73
2023-04-10T00:28:19.446Z,15.52
2023-04-10T00:30:46.968Z,14.77
2023-04-10T00:33:14.638Z,15.35
2023-04-10T00:35:42.174Z,15.50
2023-04-10T00:38:09.669Z,16.52
2023-04-10T00:40:37.353Z,15.35
2023-04-10T00:43:05.154Z,15.98
2023-04-10T00:45:32.782Z,15.90
2023-04-10T00:48:00.593Z,15.18
2023-04-10T00:50:28.088Z,16.23
2023-04-10T00:52:57.399Z,15.55
2023-04-10T00:55:25.871Z,15.25
2023-04-10T00:57:56.691Z,14.77
2023-04-10T01:00:24.242Z,15.38
2023-04-10T01:02:52.280Z,15.38
2023-04-10T01:05:20.169Z,14.07
2023-04-10T01:08:12.497Z,15.07
2023-04-10T01:11:10.532Z,15.32
2023-04-10T01:14:07.729Z,14.70
2023-04-10T01:16:43.129Z,14.30
2023-04-10T01:19:47.526Z,15.20
2023-04-10T01:22:17.720Z,14.68
2023-04-10T01:25:02.353Z,13.90
2023-04-10T01:28:07.638Z,15.30
2023-04-10T01:30:37.311Z,15.10
2023-04-10T01:33:09.940Z,14.57
2023-04-10T01:35:38.981Z,16.00
2023-04-10T01:38:08.033Z,15.27
2023-04-10T01:40:39.756Z,17.08
2023-04-10T01:43:11.460Z,16.40
2023-04-10T01:45:48.464Z,17.05
2023-04-10T01:48:17.938Z,15.27
2023-04-10T01:50:47.942Z,14.73
2023-04-10T01:53:16.779Z,13.75
2023-04-10T01:55:44.873Z,14.38
2023-04-10T01:58:14.446Z,13.45
2023-04-10T02:00:43.670Z,14.77
2023-04-10T02:03:12.953Z,14.93
2023-04-10T02:05:55.493Z,14.10
2023-04-10T02:08:39.895Z,13.90
2023-04-10T02:11:22.227Z,14.10
2023-04-10T02:13:53.203Z,14.70
2023-04-10T02:16:23.177Z,14.32
2023-04-10T02:18:52.976Z,15.07
2023-04-10T02:21:20.824Z,14.52
2023-04-10T02:23:48.503Z,13.63
2023-04-10T02:26:16.366Z,14.02
2023-04-10T02:28:43.833Z,14.30
2023-04-10T02:31:11.366Z,14.23
2023-04-10T02:33:38.951Z,15.75
2023-04-10T02:36:07.008Z,16.48
2023-04-10T02:38:34.472Z,16.60
2023-04-10T02:41:02.074Z,16.83
2023-04-10T02:43:29.875Z,16.52
2023-04-10T02:45:57.654Z,15.60
2023-04-10T02:48:27.708Z,16.70
2023-04-10T02:50:59.992Z,16.73
2023-04-10T02:53:29.223Z,16.95
2023-04-10T02:56:00.653Z,16.13
2023-04-10T02:58:30.720Z,16.60
2023-04-10T03:00:59.234Z,17.25
2023-04-10T03:03:39.758Z,17.48
2023-04-10T03:06:09.182Z,15.95
2023-04-10T03:08:37.664Z,15.82
2023-04-10T03:11:07.687Z,14.85
2023-04-10T03:13:35.198Z,14.25
2023-04-10T03:16:02.776Z,14.18
2023-04-10T03:18:32.035Z,14.88
2023-04-10T03:20:59.672Z,16.13
2023-04-10T03:23:27.206Z,15.95
2023-04-10T03:25:55.119Z,15.10
2023-04-10T03:28:27.930Z,15.80
2023-04-10T03:30:56.537Z,16.05
2023-04-10T03:33:24.020Z,14.57
2023-04-10T03:35:51.578Z,15.23
2023-04-10T03:38:19.226Z,15.95
2023-04-10T03:40:46.755Z,15.20
2023-04-10T03:43:14.815Z,14.75
2023-04-10T03:45:42.703Z,16.60
2023-04-10T03:48:10.282Z,17.38
2023-04-10T03:50:42.369Z,18.20
2023-04-10T03:53:10.165Z,18.05
2023-04-10T03:55:38.847Z,17.98
2023-04-10T03:58:06.352Z,18.02
2023-04-10T04:00:34.352Z,17.98
2023-04-10T04:03:28.414Z,15.90
2023-04-10T04:05:56.404Z,16.10
2023-04-10T04:08:36.416Z,16.70
2023-04-10T04:11:09.741Z,14.77
2023-04-10T04:13:59.301Z,15.80
2023-04-10T04:16:52.837Z,15.93
2023-04-10T04:19:43.300Z,17.40
2023-04-10T04:22:29.652Z,17.60
2023-04-10T04:25:13.479Z,17.30
2023-04-10T04:28:01.945Z,15.93
2023-04-10T04:30:41.486Z,18.05
2023-04-10T04:33:32.038Z,17.17
2023-04-10T04:36:22.385Z,15.45
2023-04-10T04:39:12.936Z,15.18
2023-04-10T04:41:52.286Z,14.38
2023-04-10T04:44:35.763Z,16.20
2023-04-10T04:47:29.431Z,16.35
2023-04-10T04:50:17.277Z,14.93
2023-04-10T04:53:14.008Z,14.85
2023-04-10T04:56:08.511Z,15.63
2023-04-10T04:58:44.856Z,16.48
2023-04-10T05:01:28.679Z,210.27
2023-04-10T05:04:14.992Z,128.70
2023-04-10T05:07:01.148Z,71.57
2023-04-10T05:09:39.192Z,45.58
2023-04-10T05:12:16.582Z,31.77
2023-04-10T05:14:51.623Z,25.23
2023-04-10T05:17:37.674Z,19.50
2023-04-10T05:20:21.833Z,16.75
2023-04-10T05:23:24.910Z,15.32
2023-04-10T05:26:15.722Z,15.25
2023-04-10T05:28:57.500Z,15.35
2023-04-10T05:31:37.443Z,16.40
2023-04-10T05:34:17.698Z,16.48
2023-04-10T05:37:03.792Z,16.20
2023-04-10T05:39:45.537Z,16.98
2023-04-10T05:42:35.528Z,15.77
2023-04-10T05:45:15.324Z,17.15
2023-04-10T05:48:21.752Z,15.93
2023-04-10T05:51:22.108Z,14.23
2023-04-10T05:54:24.805Z,14.38
2023-04-10T05:57:11.199Z,13.68
2023-04-10T05:59:47.861Z,14.15
2023-04-10T06:02:26.086Z,13.32
2023-04-10T06:04:54.228Z,14.10
2023-04-10T06:07:21.860Z,14.27
2023-04-10T06:09:49.371Z,13.85
2023-04-10T06:12:17.372Z,14.00
2023-04-10T06:14:44.942Z,14.95
2023-04-10T06:17:12.850Z,13.88
2023-04-10T06:19:40.572Z,15.13
2023-04-10T06:22:08.130Z,14.18
2023-04-10T06:24:35.795Z,14.82
2023-04-10T06:27:03.271Z,13.73
2023-04-10T06:29:31.016Z,14.35
2023-04-10T06:31:58.759Z,14.07
2023-04-10T06:34:28.479Z,14.95
2023-04-10T06:37:04.431Z,13.65
2023-04-10T06:39:32.800Z,14.20
2023-04-10T06:42:01.376Z,14.75
2023-04-10T06:44:40.845Z,14.82
2023-04-10T06:47:09.252Z,14.85
2023-04-10T06:49:36.805Z,14.88
2023-04-10T06:52:04.506Z,14.70
2023-04-10T06:54:31.947Z,16.50
2023-04-10T06:56:59.374Z,15.77
2023-04-10T06:59:26.855Z,16.63
2023-04-10T07:01:54.606Z,16.90
2023-04-10T07:04:22.134Z,16.40
2023-04-10T07:06:49.655Z,16.55
2023-04-10T07:09:17.345Z,16.88
2023-04-10T07:11:44.752Z,16.58
2023-04-10T07:14:12.270Z,15.75
2023-04-10T07:16:39.763Z,16.30
2023-04-10T07:19:07.331Z,16.33
2023-04-10T07:21:34.823Z,17.55
2023-04-10T07:24:02.563Z,16.98
2023-04-10T07:26:30.072Z,19.08
2023-04-10T07:28:57.566Z,19.38
2023-04-10T07:31:25.156Z,19.75
2023-04-10T07:33:52.835Z,19.70
2023-04-10T07:36:20.239Z,20.35
2023-04-10T07:38:47.755Z,18.90
2023-04-10T07:41:15.253Z,19.08
2023-04-10T07:43:42.731Z,19.88
2023-04-10T07:46:10.411Z,19.40
2023-04-10T07:48:37.956Z,19.98
2023-04-10T07:51:09.314Z,19.98
2023-04-10T07:53:37.522Z,19.08
2023-04-10T07:56:05.654Z,19.08
2023-04-10T07:58:33.568Z,19.92
2023-04-10T08:01:01.090Z,20.10
2023-04-10T08:03:28.810Z,19.02
2023-04-10T08:05:56.654Z,19.73
2023-04-10T08:08:24.226Z,18.75
2023-04-10T08:10:51.666Z,19.63
2023-04-10T08:13:19.145Z,18.30
2023-04-10T08:15:46.664Z,19.65
2023-04-10T08:18:14.151Z,19.38
2023-04-10T08:20:41.715Z,20.27
2023-04-10T08:25:39.863Z,19.33
2023-04-10T08:28:07.353Z,19.10
2023-04-10T08:30:34.865Z,19.13
2023-04-10T08:33:02.414Z,19.63
2023-04-10T08:35:30.010Z,18.95
2023-04-10T08:38:11.692Z,19.30
2023-04-10T08:40:39.733Z,18.52
2023-04-10T08:43:07.236Z,17.77
2023-04-10T08:45:34.705Z,19.08
2023-04-10T08:48:05.988Z,17.50
2023-04-10T08:50:36.274Z,17.80
2023-04-10T08:53:11.019Z,18.73
2023-04-10T08:55:40.381Z,18.48
2023-04-10T08:58:08.641Z,18.83
2023-04-10T09:00:38.796Z,18.77
2023-04-10T09:03:12.056Z,18.55
2023-04-10T09:05:39.810Z,18.65
2023-04-10T09:08:12.301Z,17.40
2023-04-10T09:10:39.892Z,18.42
2023-04-10T09:13:07.335Z,18.48
2023-04-10T09:16:00.839Z,16.58
2023-04-10T09:18:41.593Z,16.52
2023-04-10T09:21:11.448Z,18.08
2023-04-10T09:23:39.347Z,17.92
2023-04-10T09:26:24.566Z,16.73
2023-04-10T09:29:06.359Z,16.65
2023-04-10T09:31:39.317Z,16.42
2023-04-10T09:34:15.437Z,11.23
2023-04-10T09:36:44.943Z,9.85
2023-04-10T09:39:12.729Z,10.32
2023-04-10T09:41:55.734Z,9.75
2023-04-10T09:44:33.969Z,10.65
2023-04-10T09:47:24.263Z,10.02
2023-04-10T09:49:56.612Z,10.25
2023-04-10T09:52:29.599Z,9.85
2023-04-10T09:55:02.190Z,10.23
2023-04-10T09:57:32.403Z,8.82
2023-04-10T10:00:06.176Z,9.50
2023-04-10T10:02:37.639Z,10.50
2023-04-10T10:05:06.355Z,10.15
2023-04-10T10:07:34.757Z,9.98
2023-04-10T10:10:03.637Z,9.70
2023-04-10T10:12:40.488Z,10.43
2023-04-10T10:15:29.889Z,9.88
2023-04-10T10:18:25.101Z,10.00
2023-04-10T10:20:53.661Z,10.75
2023-04-10T10:23:22.598Z,11.90
2023-04-10T10:25:51.509Z,12.43
2023-04-10T10:28:20.136Z,11.52
2023-04-10T10:30:49.877Z,11.15
2023-04-10T10:33:18.041Z,12.13
2023-04-10T10:35:46.467Z,11.25
2023-04-10T10:38:14.487Z,12.27
2023-04-10T10:40:55.038Z,13.95
2023-04-10T10:43:36.490Z,13.60
2023-04-10T10:46:17.135Z,14.75
2023-04-10T10:48:58.202Z,15.27
2023-04-10T10:51:43.710Z,13.98
2023-04-10T10:54:42.483Z,13.90
2023-04-10T10:57:46.867Z,15.35
2023-04-10T11:00:15.858Z,13.80
2023-04-10T11:02:43.655Z,14.88
2023-04-10T11:05:31.637Z,13.52
2023-04-10T11:07:59.307Z,14.50
2023-04-10T11:11:07.197Z,13.68
2023-04-10T11:13:36.665Z,13.80
2023-04-10T11:16:06.744Z,13.13
2023-04-10T11:18:47.271Z,12.93
2023-04-10T11:21:23.912Z,13.27
2023-04-10T11:23:52.867Z,12.98
2023-04-10T11:26:35.516Z,13.23
2023-04-10T11:29:03.730Z,13.50
2023-04-10T11:31:31.788Z,13.63
2023-04-10T11:34:08.152Z,13.80
2023-04-10T11:36:38.909Z,13.60
2023-04-10T11:39:16.181Z,14.00
2023-04-10T11:41:45.964Z,11.90
2023-04-10T11:44:39.633Z,12.80
2023-04-10T11:47:07.964Z,13.45
2023-04-10T11:49:37.140Z,14.25
2023-04-10T11:52:04.723Z,12.63
2023-04-10T11:54:32.759Z,13.38
2023-04-10T11:57:05.820Z,13.40
2023-04-10T11:59:34.263Z,12.70
2023-04-10T12:02:07.882Z,11.43
2023-04-10T12:04:36.814Z,12.55
2023-04-10T12:07:04.624Z,10.98
2023-04-10T12:09:32.479Z,10.63
2023-04-10T12:12:04.855Z,11.05
2023-04-10T12:14:37.137Z,11.27
2023-04-10T12:17:06.733Z,10.63
2023-04-10T12:19:35.556Z,11.43
2023-04-10T12:22:03.281Z,11.40
2023-04-10T12:24:46.957Z,11.80
2023-04-10T12:27:21.897Z,12.60
2023-04-10T12:29:52.477Z,11.82
2023-04-10T12:32:20.777Z,9.73
2023-04-10T12:34:59.038Z,9.15
2023-04-10T12:37:54.644Z,8.80
2023-04-10T12:40:22.197Z,8.60
2023-04-10T12:42:49.660Z,9.82
2023-04-10T12:45:17.203Z,7.43
2023-04-10T12:47:54.400Z,7.90
2023-04-10T12:50:22.386Z,7.93
2023-04-10T12:53:04.978Z,9.00
2023-04-10T12:55:33.077Z,7.78
2023-04-10T12:58:22.603Z,7.65
2023-04-10T13:00:50.248Z,7.70
2023-04-10T13:03:17.896Z,7.85
2023-04-10T13:05:46.244Z,7.82
2023-04-10T13:08:14.360Z,8.30
2023-04-10T13:10:43.666Z,7.82
2023-04-10T13:13:13.958Z,7.88
2023-04-10T13:15:42.066Z,8.13
2023-04-10T13:18:12.755Z,7.40
2023-04-10T13:20:41.930Z,7.30
2023-04-10T13:23:09.579Z,7.45
2023-04-10T13:25:43.120Z,7.15
2023-04-10T13:28:11.637Z,7.68
2023-04-10T13:30:41.565Z,6.32
2023-04-10T13:33:09.739Z,6.70
2023-04-10T13:35:37.610Z,6.70
2023-04-10T13:38:05.252Z,6.20
2023-04-10T13:40:33.419Z,6.40
2023-04-10T13:43:00.997Z,6.03
2023-04-10T13:45:28.467Z,5.35
2023-04-10T13:47:56.054Z,5.70
2023-04-10T13:50:23.658Z,5.40
2023-04-10T13:52:52.333Z,5.63
2023-04-10T13:55:21.137Z,5.68
2023-04-10T13:57:48.597Z,5.75
2023-04-10T14:00:16.451Z,4.55
2023-04-10T14:02:44.232Z,5.32
2023-04-10T14:05:11.901Z,5.35
2023-04-10T14:07:39.498Z,4.93
2023-04-10T14:10:07.838Z,4.70
2023-04-10T14:12:37.068Z,4.82
2023-04-10T14:15:06.014Z,6.00
2023-04-10T14:17:34.213Z,5.82
2023-04-10T14:20:01.975Z,6.07
2023-04-10T14:22:31.781Z,5.40
2023-04-10T14:25:11.820Z,5.97
2023-04-10T14:27:40.334Z,6.10
2023-04-10T14:30:08.895Z,6.22
2023-04-10T14:32:36.552Z,6.28
2023-04-10T14:35:04.282Z,5.60
2023-04-10T14:37:32.621Z,5.95
2023-04-10T14:40:00.216Z,5.78
2023-04-10T14:42:27.829Z,6.05
2023-04-10T14:44:55.243Z,6.32
2023-04-10T14:47:22.883Z,6.50
2023-04-10T14:49:50.442Z,6.82
2023-04-10T14:52:18.690Z,7.20
2023-04-10T14:54:46.147Z,6.70
2023-04-10T14:57:15.734Z,7.30
2023-04-10T14:59:43.358Z,6.82
2023-04-10T15:02:11.024Z,6.88
2023-04-10T15:04:38.596Z,6.47
2023-04-10T15:07:06.050Z,6.85
2023-04-10T15:09:33.676Z,6.97
2023-04-10T15:12:01.946Z,6.93
2023-04-10T15:14:29.944Z,6.38
2023-04-10T15:16:57.569Z,6.68
2023-04-10T15:19:25.195Z,7.25
2023-04-10T15:21:53.906Z,7.32
2023-04-10T15:24:21.514Z,6.80
2023-04-10T15:26:49.041Z,6.38
2023-04-10T15:29:16.586Z,6.68
2023-04-10T15:31:44.024Z,6.97
2023-04-10T15:34:11.515Z,7.40
2023-04-10T15:36:39.132Z,6.60
2023-04-10T15:39:08.709Z,7.07
2023-04-10T15:41:36.221Z,7.38
2023-04-10T15:44:03.926Z,6.47
2023-04-10T15:46:32.992Z,7.13
2023-04-10T15:49:01.214Z,7.00
2023-04-10T15:51:28.766Z,6.88
2023-04-10T15:53:56.390Z,7.22
2023-04-10T15:56:24.032Z,7.13
2023-04-10T15:58:51.543Z,7.30
2023-04-10T16:01:19.062Z,6.30
2023-04-10T16:03:46.755Z,7.07
2023-04-10T16:06:14.370Z,7.22
2023-04-10T16:08:41.853Z,6.65
2023-04-10T16:11:09.353Z,6.15
2023-04-10T16:13:38.073Z,6.38
2023-04-10T16:16:09.281Z,6.28
2023-04-10T16:18:36.795Z,6.90
2023-04-10T16:21:08.529Z,6.90
2023-04-10T16:23:35.995Z,6.10
2023-04-10T16:26:03.457Z,6.65
2023-04-10T16:28:31.644Z,6.15
2023-04-10T16:30:59.144Z,6.47
2023-04-10T16:33:26.706Z,6.25
2023-04-10T16:35:54.178Z,6.50
2023-04-10T16:38:21.663Z,6.28
2023-04-10T16:40:49.102Z,5.57
2023-04-10T16:43:16.520Z,6.38
2023-04-10T16:45:43.931Z,6.63
2023-04-10T16:48:11.512Z,7.00
2023-04-10T16:50:38.972Z,6.28
2023-04-10T16:53:06.505Z,6.35
2023-04-10T16:55:33.932Z,6.60
2023-04-10T16:58:01.494Z,6.47
2023-04-10T17:00:29.187Z,6.60
2023-04-10T17:02:59.289Z,6.30
2023-04-10T17:05:33.324Z,6.13
2023-04-10T17:08:00.917Z,5.93
2023-04-10T17:10:28.423Z,5.85
2023-04-10T17:12:56.002Z,5.55
2023-04-10T17:15:23.631Z,5.85
2023-04-10T17:17:51.574Z,4.97
2023-04-10T17:20:19.091Z,5.75
2023-04-10T17:22:46.910Z,5.32
2023-04-10T17:25:14.400Z,5.45
2023-04-10T17:27:41.859Z,5.40
2023-04-10T17:30:13.230Z,5.07
2023-04-10T17:32:41.951Z,5.63
2023-04-10T17:35:09.589Z,6.15
2023-04-10T17:37:37.066Z,5.70
2023-04-10T17:40:04.838Z,6.07
2023-04-10T17:42:32.407Z,5.60
2023-04-10T17:44:59.847Z,5.65
2023-04-10T17:47:27.439Z,5.53
2023-04-10T17:49:56.034Z,6.35
2023-04-10T17:52:24.070Z,6.03
2023-04-10T17:54:51.542Z,6.53
2023-04-10T17:57:18.988Z,5.70
2023-04-10T17:59:46.449Z,5.97
2023-04-10T18:02:14.039Z,6.05
2023-04-10T18:04:41.477Z,6.35
2023-04-10T18:07:08.992Z,6.00
2023-04-10T18:09:37.736Z,6.47
2023-04-10T18:12:05.243Z,6.45
2023-04-10T18:14:32.714Z,6.60
2023-04-10T18:17:00.332Z,6.38
2023-04-10T18:19:29.879Z,6.28
2023-04-10T18:21:57.296Z,7.60
2023-04-10T18:24:24.702Z,7.35
2023-04-10T18:26:52.153Z,7.32
2023-04-10T18:29:19.962Z,7.57
2023-04-10T18:31:47.464Z,7.88
2023-04-10T18:34:14.861Z,8.73
2023-04-10T18:36:42.354Z,8.77
2023-04-10T18:39:09.795Z,9.25
2023-04-10T18:41:38.459Z,9.30
2023-04-10T18:44:06.256Z,9.23
2023-04-10T18:46:33.928Z,10.40
2023-04-10T18:49:03.111Z,9.70
2023-04-10T18:51:34.969Z,8.68
2023-04-10T18:54:03.828Z,10.20
2023-04-10T18:56:31.667Z,9.85
2023-04-10T18:58:59.305Z,9.60
2023-04-10T19:01:27.183Z,9.45
2023-04-10T19:03:55.183Z,9.82
2023-04-10T19:06:24.126Z,10.38
2023-04-10T19:08:51.905Z,10.43
2023-04-10T19:11:19.448Z,10.20
2023-04-10T19:13:47.013Z,10.13
2023-04-10T19:16:16.161Z,9.93
2023-04-10T19:18:43.673Z,9.93
2023-04-10T19:21:11.285Z,9.70
2023-04-10T19:23:39.103Z,9.80
2023-04-10T19:26:07.586Z,9.55
2023-04-10T19:28:35.196Z,9.32
2023-04-10T19:31:02.706Z,8.85
2023-04-10T19:33:30.440Z,8.10
2023-04-10T19:35:59.203Z,8.63
2023-04-10T19:38:27.576Z,8.65
2023-04-10T19:40:55.380Z,9.60
2023-04-10T19:43:22.889Z,8.55
2023-04-10T19:45:50.708Z,9.18
2023-04-10T19:48:18.255Z,9.40
2023-04-10T19:50:45.761Z,9.00
2023-04-10T19:53:15.759Z,8.77
2023-04-10T19:55:44.788Z,8.15
2023-04-10T19:58:29.923Z,8.35
2023-04-10T20:01:04.602Z,8.98
2023-04-10T20:03:33.182Z,7.88
2023-04-10T20:06:03.404Z,7.80
2023-04-10T20:08:30.917Z,7.75
2023-04-10T20:10:58.584Z,6.93
2023-04-10T20:13:26.051Z,6.95
2023-04-10T20:15:53.649Z,6.75
2023-04-10T20:18:21.231Z,6.90
2023-04-10T20:20:48.669Z,5.50
2023-04-10T20:23:16.221Z,6.07
2023-04-10T20:25:43.693Z,6.63
2023-04-10T20:28:11.327Z,5.90
2023-04-10T20:30:39.571Z,5.43
2023-04-10T20:33:07.073Z,6.10
2023-04-10T20:35:34.639Z,5.72
2023-04-10T20:38:02.178Z,6.03
2023-04-10T20:40:29.567Z,5.80
2023-04-10T20:42:57.056Z,6.03
2023-04-10T20:45:24.439Z,6.05
2023-04-10T20:47:52.065Z,5.43
2023-04-10T20:50:19.730Z,5.55
2023-04-10T20:52:47.243Z,6.00
2023-04-10T20:55:14.709Z,5.85
2023-04-10T20:57:42.155Z,6.35
2023-04-10T21:00:10.440Z,6.10
2023-04-10T21:02:38.162Z,6.28
2023-04-10T21:05:06.072Z,6.22
2023-04-10T21:07:33.566Z,5.95
2023-04-10T21:10:01.033Z,5.80
2023-04-10T21:12:28.541Z,5.97
2023-04-10T21:14:55.996Z,6.32
2023-04-10T21:17:23.742Z,7.05
2023-04-10T21:19:51.213Z,7.38
2023-04-10T21:22:18.721Z,6.90
2023-04-10T21:24:46.165Z,6.97
2023-04-10T21:27:14.101Z,7.07
2023-04-10T21:29:41.477Z,6.72
2023-04-10T21:32:09.023Z,7.22
2023-04-10T21:34:36.605Z,7.28
2023-04-10T21:37:04.100Z,7.32
2023-04-10T21:39:31.620Z,7.88
2023-04-10T21:41:59.093Z,7.90
2023-04-10T21:44:26.454Z,7.90
2023-04-10T21:46:53.942Z,7.82
2023-04-10T21:49:21.375Z,7.78
2023-04-10T21:51:48.893Z,7.95
2023-04-10T21:54:16.309Z,7.55
2023-04-10T21:56:43.906Z,8.05
2023-04-10T21:59:11.718Z,8.35
2023-04-10T22:01:41.696Z,7.57
2023-04-10T22:04:09.526Z,8.18
2023-04-10T22:06:37.006Z,8.25
2023-04-10T22:09:04.541Z,7.82
2023-04-10T22:11:33.449Z,7.93
2023-04-10T22:14:09.088Z,8.18
2023-04-10T22:16:43.888Z,7.78
2023-04-10T22:19:11.333Z,8.00
2023-04-10T22:21:38.847Z,8.15
2023-04-10T22:24:06.490Z,7.70
2023-04-10T22:26:35.182Z,7.47
2023-04-10T22:29:04.606Z,8.52
2023-04-10T22:31:32.161Z,8.20
2023-04-10T22:33:59.555Z,7.63
2023-04-10T22:36:34.303Z,7.63
2023-04-10T22:39:02.313Z,7.30
2023-04-10T22:41:30.750Z,7.97
2023-04-10T22:43:58.335Z,7.82
2023-04-10T22:46:26.172Z,6.78
2023-04-10T22:48:54.915Z,8.15
2023-04-10T22:51:22.625Z,7.30
2023-04-10T22:53:50.134Z,6.80
2023-04-10T22:56:19.420Z,6.65
2023-04-10T22:58:46.933Z,6.38
2023-04-10T23:01:14.543Z,6.95
2023-04-10T23:03:42.159Z,6.28
2023-04-10T23:06:09.723Z,6.43
2023-04-10T23:08:37.278Z,6.63
2023-04-10T23:11:04.863Z,6.70
2023-04-10T23:13:32.430Z,5.43
2023-04-10T23:15:59.928Z,6.35
2023-04-10T23:18:27.546Z,5.47
2023-04-10T23:20:55.109Z,5.93
2023-04-10T23:23:22.631Z,5.82
2023-04-10T23:25:58.027Z,6.20
2023-04-10T23:28:26.155Z,5.93
2023-04-10T23:30:53.657Z,6.07
2023-04-10T23:33:21.293Z,6.35
2023-04-10T23:35:48.712Z,6.10
2023-04-10T23:38:16.377Z,6.05
2023-04-10T23:40:43.815Z,5.55
2023-04-10T23:43:11.399Z,6.78
2023-04-10T23:45:38.889Z,6.35
2023-04-10T23:48:08.994Z,6.82
2023-04-10T23:50:36.594Z,6.72
2023-04-10T23:53:04.151Z,6.80
2023-04-10T23:55:31.642Z,6.35
2023-04-10T23:57:59.020Z,6.82
